createdAt,value
2022-08-20T00:01:08.853Z,20.56
2022-08-20T00:03:41.312Z,20.62
2022-08-20T00:06:23.491Z,20.67
2022-08-20T00:08:51.027Z,20.67
2022-08-20T00:11:21.366Z,20.71
2022-08-20T00:13:53.524Z,20.74
2022-08-20T00:16:23.215Z,20.78
2022-08-20T00:18:50.111Z,20.80
2022-08-20T00:21:18.878Z,20.82
2022-08-20T00:23:48.360Z,20.84
2022-08-20T00:26:15.992Z,20.86
2022-08-20T00:28:42.451Z,20.87
2022-08-20T00:31:11.812Z,20.86
2022-08-20T00:33:38.940Z,20.91
2022-08-20T00:36:09.366Z,20.77
2022-08-20T00:38:37.843Z,20.92
2022-08-20T00:41:06.052Z,20.91
2022-08-20T00:43:32.559Z,20.93
2022-08-20T00:46:02.364Z,20.94
2022-08-20T00:48:32.041Z,20.97
2022-08-20T00:51:30.804Z,21.04
2022-08-20T00:54:05.725Z,20.99
2022-08-20T00:56:35.985Z,20.97
2022-08-20T00:59:05.564Z,20.94
2022-08-20T01:01:34.505Z,20.98
2022-08-20T01:04:20.961Z,20.93
2022-08-20T01:06:48.572Z,20.98
2022-08-20T01:09:15.091Z,20.94
2022-08-20T01:11:42.484Z,20.96
2022-08-20T01:14:23.966Z,20.94
2022-08-20T01:16:54.982Z,20.88
2022-08-20T01:19:29.498Z,20.90
2022-08-20T01:21:58.081Z,20.86
2022-08-20T01:24:35.726Z,20.80
2022-08-20T01:27:05.644Z,20.84
2022-08-20T01:29:39.246Z,20.78
2022-08-20T01:32:06.554Z,20.78
2022-08-20T01:34:33.561Z,20.68
2022-08-20T01:37:00.504Z,20.75
2022-08-20T01:39:31.007Z,20.57
2022-08-20T01:42:07.890Z,20.75
2022-08-20T01:44:37.411Z,20.73
2022-08-20T01:47:20.273Z,20.71
2022-08-20T01:49:51.773Z,20.77
2022-08-20T01:52:42.802Z,20.83
2022-08-20T01:55:10.201Z,20.78
2022-08-20T01:57:37.826Z,20.79
2022-08-20T02:00:19.086Z,20.82
2022-08-20T02:02:46.752Z,20.83
2022-08-20T02:05:13.343Z,20.83
2022-08-20T02:07:39.782Z,20.85
2022-08-20T02:10:09.158Z,20.87
2022-08-20T02:12:35.760Z,20.81
2022-08-20T02:15:02.449Z,20.87
2022-08-20T02:17:29.330Z,20.83
2022-08-20T02:20:00.408Z,20.85
2022-08-20T02:22:44.261Z,20.88
2022-08-20T02:25:22.860Z,20.76
2022-08-20T02:27:51.787Z,20.84
2022-08-20T02:30:28.078Z,20.82
2022-08-20T02:32:56.344Z,20.81
2022-08-20T02:35:23.640Z,20.79
2022-08-20T02:37:50.844Z,20.79
2022-08-20T02:40:19.340Z,20.74
2022-08-20T02:42:58.462Z,20.67
2022-08-20T02:45:24.916Z,20.73
2022-08-20T02:47:56.622Z,20.68
2022-08-20T02:50:25.432Z,20.69
2022-08-20T02:52:52.420Z,20.70
2022-08-20T02:55:26.986Z,20.66
2022-08-20T02:57:58.567Z,20.53
2022-08-20T03:00:26.378Z,20.66
2022-08-20T03:02:52.888Z,20.65
2022-08-20T03:05:19.451Z,20.54
2022-08-20T03:07:48.309Z,20.61
2022-08-20T03:10:16.052Z,20.45
2022-08-20T03:12:42.702Z,20.56
2022-08-20T03:15:17.561Z,20.35
2022-08-20T03:17:45.297Z,20.55
2022-08-20T03:20:13.109Z,20.56
2022-08-20T03:22:40.090Z,20.55
2022-08-20T03:25:07.264Z,20.56
2022-08-20T03:27:36.326Z,20.55
2022-08-20T03:30:06.149Z,20.53
2022-08-20T03:32:32.590Z,20.51
2022-08-20T03:34:59.031Z,20.46
2022-08-20T03:37:25.517Z,20.46
2022-08-20T03:39:52.114Z,20.52
2022-08-20T03:42:18.619Z,20.53
2022-08-20T03:44:45.085Z,20.53
2022-08-20T03:47:11.896Z,20.43
2022-08-20T03:49:38.369Z,20.54
2022-08-20T03:52:06.095Z,20.54
2022-08-20T03:54:32.568Z,20.56
2022-08-20T03:57:01.119Z,20.57
2022-08-20T03:59:27.587Z,20.57
2022-08-20T04:01:54.682Z,20.57
2022-08-20T04:04:22.080Z,20.51
2022-08-20T04:06:48.577Z,20.48
2022-08-20T04:09:15.891Z,20.58
2022-08-20T04:11:43.261Z,20.58
2022-08-20T04:14:11.522Z,20.59
2022-08-20T04:16:43.100Z,20.60
2022-08-20T04:19:09.696Z,20.59
2022-08-20T04:21:36.511Z,20.59
2022-08-20T04:24:04.919Z,20.63
2022-08-20T04:26:32.233Z,20.64
2022-08-20T04:28:58.850Z,20.60
2022-08-20T04:31:25.718Z,20.63
2022-08-20T04:33:52.626Z,20.70
2022-08-20T04:36:19.426Z,20.71
2022-08-20T04:38:49.542Z,20.74
2022-08-20T04:41:23.236Z,20.72
2022-08-20T04:43:54.423Z,20.78
2022-08-20T04:46:23.862Z,20.81
2022-08-20T04:48:50.764Z,20.82
2022-08-20T04:51:18.744Z,20.85
2022-08-20T04:53:51.683Z,20.87
2022-08-20T04:56:23.758Z,20.91
2022-08-20T04:58:52.978Z,20.96
2022-08-20T05:01:20.345Z,20.99
2022-08-20T05:03:49.839Z,21.05
2022-08-20T05:06:18.125Z,21.10
2022-08-20T05:08:45.229Z,21.13
2022-08-20T05:11:33.052Z,21.18
2022-08-20T05:13:58.767Z,21.26
2022-08-20T05:16:25.309Z,21.26
2022-08-20T05:18:52.630Z,21.32
2022-08-20T05:21:20.378Z,21.40
2022-08-20T05:23:46.862Z,21.40
2022-08-20T05:26:15.145Z,21.55
2022-08-20T05:28:49.959Z,21.63
2022-08-20T05:31:23.680Z,21.64
2022-08-20T05:33:59.335Z,21.78
2022-08-20T05:36:25.719Z,21.84
2022-08-20T05:38:53.823Z,21.91
2022-08-20T05:41:28.436Z,21.96
2022-08-20T05:43:57.240Z,21.93
2022-08-20T05:46:23.804Z,22.02
2022-08-20T05:48:50.237Z,22.10
2022-08-20T05:51:16.688Z,22.02
2022-08-20T05:53:43.853Z,22.17
2022-08-20T05:56:11.371Z,22.17
2022-08-20T05:58:37.991Z,22.21
2022-08-20T06:01:04.925Z,22.26
2022-08-20T06:03:50.184Z,22.27
2022-08-20T06:06:36.763Z,22.35
2022-08-20T06:09:03.625Z,22.37
2022-08-20T06:11:32.693Z,22.32
2022-08-20T06:14:03.837Z,22.41
2022-08-20T06:16:30.462Z,22.43
2022-08-20T06:18:58.685Z,22.46
2022-08-20T06:21:25.659Z,22.48
2022-08-20T06:23:57.178Z,22.49
2022-08-20T06:26:30.088Z,22.46
2022-08-20T06:29:00.698Z,22.49
2022-08-20T06:31:27.458Z,22.52
2022-08-20T06:36:20.387Z,22.59
2022-08-20T06:38:46.829Z,22.63
2022-08-20T06:41:13.916Z,22.49
2022-08-20T06:43:40.594Z,22.72
2022-08-20T06:46:07.266Z,22.73
2022-08-20T06:48:34.338Z,22.80
2022-08-20T06:51:01.409Z,22.93
2022-08-20T06:53:28.927Z,23.00
2022-08-20T06:55:58.812Z,23.10
2022-08-20T06:58:37.663Z,23.17
2022-08-20T07:01:10.384Z,23.22
2022-08-20T07:03:55.461Z,23.28
2022-08-20T07:06:24.925Z,23.36
2022-08-20T07:08:51.439Z,23.28
2022-08-20T07:11:17.931Z,23.47
2022-08-20T07:13:45.330Z,23.54
2022-08-20T07:16:12.188Z,23.45
2022-08-20T07:18:38.703Z,23.49
2022-08-20T07:21:05.366Z,23.39
2022-08-20T07:23:31.945Z,23.66
2022-08-20T07:25:58.876Z,23.69
2022-08-20T07:28:32.010Z,23.70
2022-08-20T07:31:17.900Z,23.74
2022-08-20T07:33:46.914Z,23.84
2022-08-20T07:36:17.813Z,24.09
2022-08-20T07:38:47.011Z,23.98
2022-08-20T07:41:14.925Z,24.05
2022-08-20T07:43:45.134Z,24.15
2022-08-20T07:46:13.923Z,24.25
2022-08-20T07:48:46.110Z,24.39
2022-08-20T07:51:17.779Z,24.48
2022-08-20T07:53:46.261Z,24.31
2022-08-20T07:56:15.510Z,24.65
2022-08-20T07:58:50.294Z,24.69
2022-08-20T08:01:25.534Z,24.80
2022-08-20T08:03:52.867Z,24.88
2022-08-20T08:06:29.503Z,24.94
2022-08-20T08:09:01.846Z,25.08
2022-08-20T08:11:28.345Z,25.08
2022-08-20T08:13:54.838Z,25.21
2022-08-20T08:16:21.823Z,25.28
2022-08-20T08:18:56.629Z,25.36
2022-08-20T08:21:23.630Z,25.38
2022-08-20T08:23:50.218Z,25.34
2022-08-20T08:26:19.298Z,25.37
2022-08-20T08:28:46.892Z,25.38
2022-08-20T08:31:14.715Z,25.47
2022-08-20T08:33:41.540Z,25.53
2022-08-20T08:36:11.529Z,25.49
2022-08-20T08:38:40.473Z,25.69
2022-08-20T08:41:20.306Z,25.75
2022-08-20T08:43:47.946Z,25.97
2022-08-20T08:46:22.480Z,25.85
2022-08-20T08:48:53.502Z,25.89
2022-08-20T08:51:30.344Z,25.87
2022-08-20T08:53:57.543Z,26.00
2022-08-20T08:56:27.376Z,26.03
2022-08-20T08:58:55.600Z,26.11
2022-08-20T09:01:54.541Z,26.09
2022-08-20T09:04:12.552Z,26.04
2022-08-20T09:06:40.472Z,26.17
2022-08-20T09:09:21.476Z,26.21
2022-08-20T09:11:52.972Z,26.26
2022-08-20T09:14:20.563Z,26.28
2022-08-20T09:16:52.948Z,26.32
2022-08-20T09:19:20.755Z,26.38
2022-08-20T09:21:47.338Z,26.49
2022-08-20T09:24:13.817Z,26.67
2022-08-20T09:26:40.588Z,26.77
2022-08-20T09:29:07.284Z,26.88
2022-08-20T09:31:33.855Z,26.92
2022-08-20T09:34:00.329Z,27.00
2022-08-20T09:36:31.874Z,27.24
2022-08-20T09:39:00.492Z,27.45
2022-08-20T09:41:28.991Z,27.91
2022-08-20T09:43:55.482Z,27.82
2022-08-20T09:46:27.317Z,27.93
2022-08-20T09:48:54.493Z,27.98
2022-08-20T09:51:21.408Z,28.09
2022-08-20T09:53:49.042Z,28.08
2022-08-20T09:56:15.835Z,28.23
2022-08-20T09:58:52.047Z,28.29
2022-08-20T10:01:21.183Z,28.00
2022-08-20T10:03:49.125Z,28.16
2022-08-20T10:06:17.772Z,28.10
2022-08-20T10:08:44.505Z,27.87
2022-08-20T10:11:11.361Z,28.06
2022-08-20T10:13:37.918Z,28.07
2022-08-20T10:16:05.317Z,27.92
2022-08-20T10:18:31.739Z,28.01
2022-08-20T10:20:58.431Z,27.74
2022-08-20T10:23:24.890Z,27.77
2022-08-20T10:25:51.594Z,27.60
2022-08-20T10:28:18.035Z,27.66
2022-08-20T10:30:45.209Z,27.67
2022-08-20T10:33:11.637Z,27.64
2022-08-20T10:35:38.053Z,27.63
2022-08-20T10:38:04.522Z,27.58
2022-08-20T10:40:31.043Z,27.51
2022-08-20T10:42:57.480Z,27.41
2022-08-20T10:45:25.715Z,27.32
2022-08-20T10:47:52.416Z,27.30
2022-08-20T10:50:20.248Z,27.25
2022-08-20T10:52:47.126Z,27.30
2022-08-20T10:55:13.983Z,27.28
2022-08-20T10:57:41.411Z,27.33
2022-08-20T11:00:12.328Z,27.35
2022-08-20T11:02:38.922Z,27.41
2022-08-20T11:05:06.771Z,27.50
2022-08-20T11:07:54.828Z,27.62
2022-08-20T11:10:26.940Z,27.74
2022-08-20T11:12:53.533Z,27.85
2022-08-20T11:15:20.232Z,27.95
2022-08-20T11:17:46.774Z,28.04
2022-08-20T11:20:15.703Z,28.21
2022-08-20T11:22:42.126Z,28.26
2022-08-20T11:25:09.365Z,28.29
2022-08-20T11:27:39.605Z,28.43
2022-08-20T11:30:10.501Z,28.20
2022-08-20T11:32:37.144Z,28.21
2022-08-20T11:35:24.522Z,28.22
2022-08-20T11:37:52.386Z,28.07
2022-08-20T11:40:19.001Z,28.15
2022-08-20T11:43:11.067Z,28.14
2022-08-20T11:45:37.390Z,28.32
2022-08-20T11:48:04.395Z,28.40
2022-08-20T11:50:30.863Z,28.38
2022-08-20T11:52:57.320Z,28.57
2022-08-20T11:55:28.475Z,28.69
2022-08-20T11:58:00.010Z,28.86
2022-08-20T12:00:32.859Z,28.95
2022-08-20T12:03:08.633Z,29.05
2022-08-20T12:05:36.269Z,29.09
2022-08-20T12:08:03.739Z,29.21
2022-08-20T12:10:30.381Z,29.25
2022-08-20T12:12:57.161Z,29.25
2022-08-20T12:15:26.641Z,29.30
2022-08-20T12:17:54.148Z,29.41
2022-08-20T12:20:20.773Z,29.43
2022-08-20T12:22:47.304Z,29.41
2022-08-20T12:25:13.863Z,29.41
2022-08-20T12:27:41.463Z,29.38
2022-08-20T12:30:14.415Z,29.46
2022-08-20T12:32:42.268Z,29.45
2022-08-20T12:35:10.508Z,29.44
2022-08-20T12:37:37.373Z,29.48
2022-08-20T12:40:07.389Z,29.46
2022-08-20T12:42:34.031Z,29.34
2022-08-20T12:45:01.136Z,29.38
2022-08-20T12:47:30.903Z,29.39
2022-08-20T12:50:01.087Z,29.25
2022-08-20T12:52:29.721Z,29.34
2022-08-20T12:54:57.325Z,29.32
2022-08-20T12:57:25.624Z,29.28
2022-08-20T12:59:52.305Z,29.28
2022-08-20T13:02:19.148Z,29.28
2022-08-20T13:04:45.736Z,29.36
2022-08-20T13:07:13.496Z,29.38
2022-08-20T13:09:41.219Z,29.38
2022-08-20T13:12:08.589Z,29.30
2022-08-20T13:14:36.177Z,29.26
2022-08-20T13:17:03.457Z,29.20
2022-08-20T13:19:31.256Z,29.15
2022-08-20T13:21:57.806Z,29.12
2022-08-20T13:24:24.295Z,29.22
2022-08-20T13:26:50.861Z,29.21
2022-08-20T13:29:18.912Z,29.22
2022-08-20T13:31:45.482Z,29.16
2022-08-20T13:34:12.503Z,29.15
2022-08-20T13:36:39.110Z,29.18
2022-08-20T13:39:06.883Z,29.18
2022-08-20T13:41:33.806Z,29.25
2022-08-20T13:44:00.249Z,29.26
2022-08-20T13:46:26.690Z,29.22
2022-08-20T13:48:53.094Z,29.18
2022-08-20T13:51:19.544Z,29.07
2022-08-20T13:53:48.192Z,29.01
2022-08-20T13:56:14.602Z,29.00
2022-08-20T13:58:41.052Z,28.92
2022-08-20T14:01:07.611Z,28.96
2022-08-20T14:03:35.276Z,28.91
2022-08-20T14:06:03.439Z,28.95
2022-08-20T14:08:30.202Z,28.90
2022-08-20T14:10:56.934Z,28.87
2022-08-20T14:13:25.628Z,28.69
2022-08-20T14:15:52.453Z,28.76
2022-08-20T14:18:19.851Z,28.73
2022-08-20T14:20:46.369Z,28.64
2022-08-20T14:23:13.370Z,28.57
2022-08-20T14:25:40.023Z,28.56
2022-08-20T14:28:18.053Z,28.58
2022-08-20T14:30:46.428Z,28.45
2022-08-20T14:33:20.094Z,28.35
2022-08-20T14:35:46.537Z,28.32
2022-08-20T14:38:12.967Z,28.20
2022-08-20T14:40:39.581Z,28.13
2022-08-20T14:43:06.150Z,28.05
2022-08-20T14:45:32.591Z,27.93
2022-08-20T14:47:59.806Z,27.88
2022-08-20T14:50:28.046Z,27.84
2022-08-20T14:52:55.861Z,27.82
2022-08-20T14:55:25.694Z,27.83
2022-08-20T14:57:52.067Z,28.13
2022-08-20T15:00:28.363Z,27.95
2022-08-20T15:02:55.278Z,27.77
2022-08-20T15:05:22.140Z,27.91
2022-08-20T15:07:53.960Z,27.93
2022-08-20T15:10:28.009Z,27.88
2022-08-20T15:12:55.052Z,27.65
2022-08-20T15:15:21.968Z,27.65
2022-08-20T15:17:55.064Z,27.62
2022-08-20T15:20:25.318Z,27.53
2022-08-20T15:22:52.010Z,27.54
2022-08-20T15:25:22.106Z,27.59
2022-08-20T15:27:49.084Z,27.62
2022-08-20T15:30:19.749Z,27.69
2022-08-20T15:32:50.234Z,27.72
2022-08-20T15:35:19.386Z,27.73
2022-08-20T15:37:49.038Z,27.64
2022-08-20T15:40:23.492Z,27.80
2022-08-20T15:42:53.763Z,27.71
2022-08-20T15:45:21.956Z,27.75
2022-08-20T15:48:00.088Z,27.82
2022-08-20T15:51:03.164Z,27.92
2022-08-20T15:53:50.351Z,27.84
2022-08-20T15:56:52.098Z,27.81
2022-08-20T15:59:26.021Z,27.70
2022-08-20T16:02:29.292Z,27.63
2022-08-20T16:05:32.742Z,27.54
2022-08-20T16:08:20.499Z,27.45
2022-08-20T16:11:20.051Z,27.34
2022-08-20T16:14:13.997Z,27.40
2022-08-20T16:17:01.187Z,27.40
2022-08-20T16:19:36.253Z,27.53
2022-08-20T16:22:04.305Z,27.43
2022-08-20T16:24:31.706Z,27.38
2022-08-20T16:27:30.524Z,27.41
2022-08-20T16:30:03.925Z,27.27
2022-08-20T16:32:30.743Z,27.18
2022-08-20T16:35:10.131Z,27.12
2022-08-20T16:37:51.322Z,27.11
2022-08-20T16:40:20.518Z,27.06
2022-08-20T16:42:51.384Z,27.02
2022-08-20T16:45:26.328Z,27.01
2022-08-20T16:47:56.903Z,26.98
2022-08-20T16:50:28.791Z,26.96
2022-08-20T16:52:55.442Z,26.90
2022-08-20T16:55:23.280Z,26.83
2022-08-20T16:57:52.774Z,26.81
2022-08-20T17:00:35.277Z,26.72
2022-08-20T17:03:08.804Z,26.64
2022-08-20T17:05:37.922Z,26.65
2022-08-20T17:08:07.174Z,26.52
2022-08-20T17:10:54.685Z,26.43
2022-08-20T17:13:28.260Z,26.31
2022-08-20T17:16:07.265Z,26.28
2022-08-20T17:18:37.199Z,26.33
2022-08-20T17:21:05.716Z,26.49
2022-08-20T17:23:54.578Z,26.17
2022-08-20T17:26:30.388Z,26.25
2022-08-20T17:29:10.508Z,26.13
2022-08-20T17:31:43.158Z,26.03
2022-08-20T17:34:25.336Z,26.01
2022-08-20T17:36:57.742Z,25.97
2022-08-20T17:39:27.574Z,25.95
2022-08-20T17:42:25.634Z,25.98
2022-08-20T17:45:21.287Z,25.98
2022-08-20T17:47:47.967Z,25.79
2022-08-20T17:50:38.364Z,25.75
2022-08-20T17:53:29.487Z,25.64
2022-08-20T17:56:08.566Z,25.52
2022-08-20T17:58:54.392Z,25.38
2022-08-20T18:01:22.923Z,25.21
2022-08-20T18:03:51.543Z,24.99
2022-08-20T18:06:31.066Z,24.74
2022-08-20T18:09:04.626Z,24.53
2022-08-20T18:11:45.333Z,24.29
2022-08-20T18:14:23.938Z,24.02
2022-08-20T18:17:08.389Z,23.79
2022-08-20T18:19:37.592Z,23.59
2022-08-20T18:22:33.191Z,23.40
2022-08-20T18:25:24.960Z,23.23
2022-08-20T18:27:55.277Z,22.98
2022-08-20T18:30:23.533Z,22.81
2022-08-20T18:33:08.740Z,22.65
2022-08-20T18:35:46.219Z,22.52
2022-08-20T18:38:21.747Z,22.39
2022-08-20T18:40:50.947Z,22.20
2022-08-20T18:43:30.343Z,22.07
2022-08-20T18:46:13.294Z,21.94
2022-08-20T18:48:50.864Z,21.81
2022-08-20T18:51:21.395Z,21.66
2022-08-20T18:53:51.111Z,21.49
2022-08-20T18:56:30.622Z,21.39
2022-08-20T18:59:01.946Z,21.28
2022-08-20T19:01:31.881Z,21.16
2022-08-20T19:03:58.503Z,21.06
2022-08-20T19:06:55.487Z,20.92
2022-08-20T19:09:36.233Z,20.80
2022-08-20T19:12:02.750Z,20.62
2022-08-20T19:14:45.693Z,20.50
2022-08-20T19:17:37.219Z,20.30
2022-08-20T19:20:11.068Z,20.14
2022-08-20T19:22:39.719Z,19.99
2022-08-20T19:25:07.171Z,19.85
2022-08-20T19:27:33.844Z,19.73
2022-08-20T19:30:01.361Z,19.55
2022-08-20T19:32:31.877Z,19.46
2022-08-20T19:35:08.432Z,19.35
2022-08-20T19:37:50.422Z,19.22
2022-08-20T19:40:29.489Z,19.09
2022-08-20T19:42:59.420Z,18.95
2022-08-20T19:45:47.119Z,18.89
2022-08-20T19:48:13.487Z,18.73
2022-08-20T19:50:52.234Z,18.64
2022-08-20T19:53:33.696Z,18.49
2022-08-20T19:56:05.432Z,18.43
2022-08-20T19:58:34.248Z,18.31
2022-08-20T20:01:03.556Z,18.05
2022-08-20T20:03:35.649Z,18.14
2022-08-20T20:06:17.174Z,18.03
2022-08-20T20:09:03.705Z,17.96
2022-08-20T20:11:45.212Z,17.85
2022-08-20T20:14:14.946Z,17.73
2022-08-20T20:16:42.571Z,17.66
2022-08-20T20:19:27.806Z,17.62
2022-08-20T20:22:19.015Z,17.56
2022-08-20T20:24:56.680Z,17.47
2022-08-20T20:27:25.830Z,17.38
2022-08-20T20:30:02.445Z,17.33
2022-08-20T20:32:30.331Z,17.22
2022-08-20T20:34:59.173Z,17.19
2022-08-20T20:37:55.958Z,17.14
2022-08-20T20:40:26.528Z,17.07
2022-08-20T20:43:08.529Z,17.01
2022-08-20T20:45:55.185Z,16.94
2022-08-20T20:48:26.119Z,16.89
2022-08-20T20:50:56.422Z,16.83
2022-08-20T20:53:53.225Z,16.82
2022-08-20T20:56:44.352Z,16.77
2022-08-20T20:59:11.034Z,16.69
2022-08-20T21:01:49.802Z,16.64
2022-08-20T21:04:18.489Z,16.60
2022-08-20T21:06:45.099Z,16.56
2022-08-20T21:09:12.136Z,16.50
2022-08-20T21:11:38.578Z,16.43
2022-08-20T21:14:05.037Z,16.38
2022-08-20T21:16:31.538Z,16.37
2022-08-20T21:18:58.371Z,16.31
2022-08-20T21:21:24.934Z,16.29
2022-08-20T21:23:51.735Z,16.09
2022-08-20T21:26:18.664Z,16.18
2022-08-20T21:28:45.101Z,16.17
2022-08-20T21:31:11.552Z,16.13
2022-08-20T21:33:37.973Z,16.12
2022-08-20T21:36:04.650Z,16.05
2022-08-20T21:38:31.159Z,15.98
2022-08-20T21:40:58.425Z,15.99
2022-08-20T21:43:26.769Z,15.95
2022-08-20T21:45:53.249Z,15.93
2022-08-20T21:48:20.049Z,15.89
2022-08-20T21:50:46.474Z,15.78
2022-08-20T21:53:13.246Z,15.80
2022-08-20T21:55:40.880Z,15.76
2022-08-20T21:58:08.647Z,15.73
2022-08-20T22:00:55.792Z,15.71
2022-08-20T22:03:28.391Z,15.62
2022-08-20T22:05:55.867Z,15.61
2022-08-20T22:08:26.147Z,15.43
2022-08-20T22:10:59.699Z,15.57
2022-08-20T22:13:32.788Z,15.47
2022-08-20T22:16:06.594Z,15.49
2022-08-20T22:18:33.657Z,15.46
2022-08-20T22:21:00.556Z,15.43
2022-08-20T22:23:27.163Z,15.40
2022-08-20T22:25:54.034Z,15.38
2022-08-20T22:28:20.966Z,15.19
2022-08-20T22:30:47.993Z,15.30
2022-08-20T22:33:20.889Z,15.28
2022-08-20T22:35:51.668Z,15.24
2022-08-20T22:38:18.877Z,15.02
2022-08-20T22:40:46.018Z,15.16
2022-08-20T22:43:12.973Z,15.12
2022-08-20T22:45:41.517Z,15.08
2022-08-20T22:48:09.117Z,15.06
2022-08-20T22:50:37.658Z,15.00
2022-08-20T22:53:06.236Z,14.92
2022-08-20T22:55:32.955Z,14.97
2022-08-20T22:57:59.454Z,14.97
2022-08-20T23:00:27.544Z,14.93
2022-08-20T23:02:57.734Z,14.94
2022-08-20T23:05:25.781Z,15.00
2022-08-20T23:07:54.239Z,14.85
2022-08-20T23:10:21.687Z,14.82
2022-08-20T23:12:48.202Z,14.79
2022-08-20T23:15:15.226Z,14.79
2022-08-20T23:17:41.682Z,14.78
2022-08-20T23:20:11.210Z,14.74
2022-08-20T23:22:37.736Z,14.72
2022-08-20T23:25:06.375Z,14.69
2022-08-20T23:27:40.441Z,14.66
2022-08-20T23:30:07.571Z,14.61
2022-08-20T23:32:34.077Z,14.48
2022-08-20T23:35:00.533Z,14.57
2022-08-20T23:37:27.115Z,14.54
2022-08-20T23:39:53.655Z,14.46
2022-08-20T23:42:20.121Z,14.52
2022-08-20T23:44:46.797Z,14.50
2022-08-20T23:47:19.917Z,14.51
2022-08-20T23:49:46.823Z,14.48
2022-08-20T23:52:13.320Z,14.41
2022-08-20T23:54:40.251Z,14.45
2022-08-20T23:57:08.097Z,14.40
2022-08-20T23:59:35.335Z,14.11
